sensor_id;sensor_type;location;lat;lon;timestamp;pressure;altitude;pressure_sealevel;temperature;humidity
75157;BME280;63736;50.076;8.198;2023-07-20T00:00:03;99315.00;;;17.62;69.56
75157;BME280;63736;50.076;8.198;2023-07-20T00:02:29;99306.31;;;17.51;69.90
75157;BME280;63736;50.076;8.198;2023-07-20T00:04:54;99315.16;;;17.45;71.30
75157;BME280;63736;50.076;8.198;2023-07-20T00:07:19;99311.66;;;17.37;72.03
75157;BME280;63736;50.076;8.198;2023-07-20T00:09:44;99307.97;;;17.29;72.40
75157;BME280;63736;50.076;8.198;2023-07-20T00:12:10;99308.84;;;17.22;72.73
75157;BME280;63736;50.076;8.198;2023-07-20T00:14:35;99310.78;;;17.13;73.15
75157;BME280;63736;50.076;8.198;2023-07-20T00:17:02;99308.47;;;17.01;73.59
75157;BME280;63736;50.076;8.198;2023-07-20T00:19:27;99321.16;;;16.93;73.86
75157;BME280;63736;50.076;8.198;2023-07-20T00:21:54;99316.94;;;16.82;74.66
75157;BME280;63736;50.076;8.198;2023-07-20T00:24:20;99319.00;;;16.72;74.65
75157;BME280;63736;50.076;8.198;2023-07-20T00:26:45;99315.66;;;16.61;75.36
75157;BME280;63736;50.076;8.198;2023-07-20T00:29:10;99318.41;;;16.53;75.85
75157;BME280;63736;50.076;8.198;2023-07-20T00:31:36;99321.97;;;16.45;76.63
75157;BME280;63736;50.076;8.198;2023-07-20T00:34:03;99320.28;;;16.36;77.16
75157;BME280;63736;50.076;8.198;2023-07-20T00:36:28;99321.16;;;16.28;77.64
75157;BME280;63736;50.076;8.198;2023-07-20T00:38:54;99319.31;;;16.21;78.62
75157;BME280;63736;50.076;8.198;2023-07-20T00:41:20;99332.28;;;16.17;79.52
75157;BME280;63736;50.076;8.198;2023-07-20T00:43:45;99328.56;;;16.18;80.85
75157;BME280;63736;50.076;8.198;2023-07-20T00:46:11;99331.91;;;16.20;81.73
75157;BME280;63736;50.076;8.198;2023-07-20T00:48:36;99327.72;;;16.17;81.97
75157;BME280;63736;50.076;8.198;2023-07-20T00:51:02;99326.19;;;16.15;83.44
75157;BME280;63736;50.076;8.198;2023-07-20T00:53:28;99326.72;;;16.10;83.85
75157;BME280;63736;50.076;8.198;2023-07-20T00:55:53;99324.53;;;16.06;84.63
75157;BME280;63736;50.076;8.198;2023-07-20T00:58:19;99327.88;;;15.99;84.99
75157;BME280;63736;50.076;8.198;2023-07-20T01:00:45;99328.41;;;15.95;85.35
75157;BME280;63736;50.076;8.198;2023-07-20T01:03:10;99330.78;;;15.90;85.86
75157;BME280;63736;50.076;8.198;2023-07-20T01:05:41;99320.66;;;15.83;87.13
75157;BME280;63736;50.076;8.198;2023-07-20T01:08:14;99328.38;;;15.78;87.13
75157;BME280;63736;50.076;8.198;2023-07-20T01:10:46;99325.50;;;15.72;87.82
75157;BME280;63736;50.076;8.198;2023-07-20T01:13:15;99332.41;;;15.66;88.33
75157;BME280;63736;50.076;8.198;2023-07-20T01:15:41;99324.66;;;15.63;89.26
75157;BME280;63736;50.076;8.198;2023-07-20T01:18:07;99316.06;;;15.59;90.90
75157;BME280;63736;50.076;8.198;2023-07-20T01:20:33;99325.00;;;15.60;91.26
75157;BME280;63736;50.076;8.198;2023-07-20T01:23:22;99322.47;;;15.58;92.10
75157;BME280;63736;50.076;8.198;2023-07-20T01:31:25;99326.31;;;15.47;93.29
75157;BME280;63736;50.076;8.198;2023-07-20T01:33:55;99318.09;;;15.49;95.79
75157;BME280;63736;50.076;8.198;2023-07-20T01:36:23;99319.25;;;15.55;97.05
75157;BME280;63736;50.076;8.198;2023-07-20T01:38:49;99314.88;;;15.62;97.11
75157;BME280;63736;50.076;8.198;2023-07-20T01:41:16;99310.88;;;15.66;96.75
75157;BME280;63736;50.076;8.198;2023-07-20T01:43:42;99314.75;;;15.72;97.66
75157;BME280;63736;50.076;8.198;2023-07-20T01:46:07;99310.06;;;15.82;96.94
75157;BME280;63736;50.076;8.198;2023-07-20T01:48:33;99312.75;;;15.90;96.77
75157;BME280;63736;50.076;8.198;2023-07-20T01:50:58;99305.84;;;15.96;96.83
75157;BME280;63736;50.076;8.198;2023-07-20T01:53:23;99316.09;;;16.00;95.44
75157;BME280;63736;50.076;8.198;2023-07-20T01:55:49;99312.75;;;15.98;94.93
75157;BME280;63736;50.076;8.198;2023-07-20T01:58:14;99319.34;;;15.96;94.22
75157;BME280;63736;50.076;8.198;2023-07-20T02:00:39;99320.16;;;15.96;95.70
75157;BME280;63736;50.076;8.198;2023-07-20T02:03:05;99315.59;;;15.97;95.49
75157;BME280;63736;50.076;8.198;2023-07-20T02:05:30;99316.28;;;15.99;96.28
75157;BME280;63736;50.076;8.198;2023-07-20T02:07:55;99319.66;;;16.01;96.32
75157;BME280;63736;50.076;8.198;2023-07-20T02:10:21;99319.13;;;16.06;96.00
75157;BME280;63736;50.076;8.198;2023-07-20T02:12:46;99319.81;;;16.08;94.81
75157;BME280;63736;50.076;8.198;2023-07-20T02:15:12;99322.53;;;16.08;95.04
75157;BME280;63736;50.076;8.198;2023-07-20T02:17:39;99329.41;;;16.10;94.93
75157;BME280;63736;50.076;8.198;2023-07-20T02:20:07;99325.38;;;16.14;94.60
75157;BME280;63736;50.076;8.198;2023-07-20T02:22:34;99324.84;;;16.19;94.20
75157;BME280;63736;50.076;8.198;2023-07-20T02:24:59;99331.59;;;16.23;93.92
75157;BME280;63736;50.076;8.198;2023-07-20T02:27:25;99330.91;;;16.29;94.08
75157;BME280;63736;50.076;8.198;2023-07-20T02:29:50;99323.81;;;16.37;93.67
75157;BME280;63736;50.076;8.198;2023-07-20T02:32:15;99321.28;;;16.43;92.56
75157;BME280;63736;50.076;8.198;2023-07-20T02:34:41;99316.53;;;16.54;92.69
75157;BME280;63736;50.076;8.198;2023-07-20T02:37:06;99320.06;;;16.62;91.91
75157;BME280;63736;50.076;8.198;2023-07-20T02:39:31;99316.66;;;16.68;91.09
75157;BME280;63736;50.076;8.198;2023-07-20T02:41:56;99325.22;;;16.72;90.28
75157;BME280;63736;50.076;8.198;2023-07-20T02:44:22;99321.34;;;16.75;90.10
75157;BME280;63736;50.076;8.198;2023-07-20T02:46:47;99322.22;;;16.75;89.49
75157;BME280;63736;50.076;8.198;2023-07-20T02:49:14;99317.13;;;16.72;89.49
75157;BME280;63736;50.076;8.198;2023-07-20T02:51:40;99314.13;;;16.67;89.71
75157;BME280;63736;50.076;8.198;2023-07-20T02:54:06;99310.28;;;16.61;89.67
75157;BME280;63736;50.076;8.198;2023-07-20T02:56:31;99308.94;;;16.57;90.22
75157;BME280;63736;50.076;8.198;2023-07-20T02:58:57;99314.00;;;16.52;89.78
75157;BME280;63736;50.076;8.198;2023-07-20T03:01:22;99318.41;;;16.45;90.31
75157;BME280;63736;50.076;8.198;2023-07-20T03:03:48;99320.13;;;16.38;91.02
75157;BME280;63736;50.076;8.198;2023-07-20T03:06:16;99323.00;;;16.36;92.10
75157;BME280;63736;50.076;8.198;2023-07-20T03:08:44;99319.44;;;16.35;92.38
75157;BME280;63736;50.076;8.198;2023-07-20T03:11:13;99321.31;;;16.35;92.72
75157;BME280;63736;50.076;8.198;2023-07-20T03:13:39;99324.31;;;16.32;92.47
75157;BME280;63736;50.076;8.198;2023-07-20T03:16:04;99322.81;;;16.29;92.16
75157;BME280;63736;50.076;8.198;2023-07-20T03:18:29;99328.56;;;16.26;92.85
75157;BME280;63736;50.076;8.198;2023-07-20T03:20:55;99322.66;;;16.23;92.96
75157;BME280;63736;50.076;8.198;2023-07-20T03:23:20;99317.25;;;16.23;93.50
75157;BME280;63736;50.076;8.198;2023-07-20T03:25:45;99317.09;;;16.24;92.89
75157;BME280;63736;50.076;8.198;2023-07-20T03:28:11;99315.91;;;16.27;93.63
75157;BME280;63736;50.076;8.198;2023-07-20T03:30:36;99320.28;;;16.28;93.44
75157;BME280;63736;50.076;8.198;2023-07-20T03:33:01;99315.41;;;16.31;93.68
75157;BME280;63736;50.076;8.198;2023-07-20T03:35:28;99315.72;;;16.37;94.01
75157;BME280;63736;50.076;8.198;2023-07-20T03:37:53;99318.75;;;16.42;93.76
75157;BME280;63736;50.076;8.198;2023-07-20T03:40:18;99326.50;;;16.45;93.07
75157;BME280;63736;50.076;8.198;2023-07-20T03:42:44;99321.28;;;16.43;92.71
75157;BME280;63736;50.076;8.198;2023-07-20T03:45:09;99329.34;;;16.43;93.09
75157;BME280;63736;50.076;8.198;2023-07-20T03:47:34;99334.75;;;16.43;93.27
75157;BME280;63736;50.076;8.198;2023-07-20T03:50:00;99331.88;;;16.45;93.57
75157;BME280;63736;50.076;8.198;2023-07-20T03:52:25;99336.09;;;16.47;93.67
75157;BME280;63736;50.076;8.198;2023-07-20T03:54:51;99343.84;;;16.50;93.22
75157;BME280;63736;50.076;8.198;2023-07-20T03:57:16;99336.59;;;16.51;93.15
75157;BME280;63736;50.076;8.198;2023-07-20T03:59:45;99341.81;;;16.52;92.92
75157;BME280;63736;50.076;8.198;2023-07-20T04:02:10;99333.91;;;16.51;92.98
75157;BME280;63736;50.076;8.198;2023-07-20T04:04:36;99339.47;;;16.49;92.84
75157;BME280;63736;50.076;8.198;2023-07-20T04:07:01;99336.94;;;16.48;92.71
75157;BME280;63736;50.076;8.198;2023-07-20T04:09:26;99348.06;;;16.45;93.21
75157;BME280;63736;50.076;8.198;2023-07-20T04:11:52;99342.50;;;16.46;93.08
75157;BME280;63736;50.076;8.198;2023-07-20T04:14:17;99349.38;;;16.49;92.90
75157;BME280;63736;50.076;8.198;2023-07-20T04:16:42;99350.06;;;16.51;93.42
75157;BME280;63736;50.076;8.198;2023-07-20T04:19:08;99349.25;;;16.50;93.62
75157;BME280;63736;50.076;8.198;2023-07-20T04:21:39;99354.09;;;16.55;93.87
75157;BME280;63736;50.076;8.198;2023-07-20T04:24:06;99349.41;;;16.57;93.63
75157;BME280;63736;50.076;8.198;2023-07-20T04:26:31;99338.06;;;16.62;93.67
75157;BME280;63736;50.076;8.198;2023-07-20T04:28:56;99340.63;;;16.63;93.14
75157;BME280;63736;50.076;8.198;2023-07-20T04:31:21;99342.78;;;16.68;92.57
75157;BME280;63736;50.076;8.198;2023-07-20T04:33:47;99342.59;;;16.69;92.66
75157;BME280;63736;50.076;8.198;2023-07-20T04:36:12;99347.50;;;16.74;91.99
75157;BME280;63736;50.076;8.198;2023-07-20T04:38:39;99344.91;;;16.89;91.68
75157;BME280;63736;50.076;8.198;2023-07-20T04:41:05;99343.53;;;17.01;90.99
75157;BME280;63736;50.076;8.198;2023-07-20T04:43:30;99349.22;;;17.15;89.41
75157;BME280;63736;50.076;8.198;2023-07-20T04:45:55;99348.69;;;17.51;88.87
75157;BME280;63736;50.076;8.198;2023-07-20T04:48:20;99356.25;;;18.25;85.61
75157;BME280;63736;50.076;8.198;2023-07-20T04:50:46;99345.88;;;18.67;81.50
75157;BME280;63736;50.076;8.198;2023-07-20T04:53:12;99351.56;;;18.87;78.58
75157;BME280;63736;50.076;8.198;2023-07-20T04:55:38;99353.72;;;18.92;77.46
75157;BME280;63736;50.076;8.198;2023-07-20T04:58:05;99352.50;;;18.94;77.14
75157;BME280;63736;50.076;8.198;2023-07-20T05:00:34;99353.72;;;19.07;76.33
75157;BME280;63736;50.076;8.198;2023-07-20T05:02:59;99352.31;;;19.62;74.55
75157;BME280;63736;50.076;8.198;2023-07-20T05:05:25;99351.88;;;20.52;71.31
75157;BME280;63736;50.076;8.198;2023-07-20T05:07:50;99354.16;;;21.19;66.28
75157;BME280;63736;50.076;8.198;2023-07-20T05:10:16;99351.34;;;21.54;63.96
75157;BME280;63736;50.076;8.198;2023-07-20T05:12:41;99348.53;;;22.29;61.09
75157;BME280;63736;50.076;8.198;2023-07-20T05:15:07;99358.44;;;23.09;58.14
75157;BME280;63736;50.076;8.198;2023-07-20T05:17:32;99345.53;;;23.82;54.69
75157;BME280;63736;50.076;8.198;2023-07-20T05:19:57;99344.03;;;24.43;52.13
75157;BME280;63736;50.076;8.198;2023-07-20T05:22:22;99347.97;;;25.10;49.64
75157;BME280;63736;50.076;8.198;2023-07-20T05:24:49;99349.72;;;25.71;47.59
75157;BME280;63736;50.076;8.198;2023-07-20T05:27:15;99349.59;;;26.20;45.66
75157;BME280;63736;50.076;8.198;2023-07-20T05:29:44;99349.41;;;26.58;44.33
75157;BME280;63736;50.076;8.198;2023-07-20T05:32:10;99354.66;;;26.95;43.21
75157;BME280;63736;50.076;8.198;2023-07-20T05:34:35;99351.81;;;27.42;42.17
75157;BME280;63736;50.076;8.198;2023-07-20T05:37:00;99350.66;;;27.84;40.56
75157;BME280;63736;50.076;8.198;2023-07-20T05:39:25;99355.22;;;28.24;40.20
75157;BME280;63736;50.076;8.198;2023-07-20T05:41:51;99357.59;;;28.55;38.37
75157;BME280;63736;50.076;8.198;2023-07-20T05:44:16;99360.75;;;28.80;37.56
75157;BME280;63736;50.076;8.198;2023-07-20T05:46:41;99363.16;;;29.16;36.91
75157;BME280;63736;50.076;8.198;2023-07-20T05:49:07;99359.22;;;29.51;36.61
75157;BME280;63736;50.076;8.198;2023-07-20T05:51:32;99361.00;;;29.67;35.93
75157;BME280;63736;50.076;8.198;2023-07-20T05:53:57;99365.75;;;29.45;35.55
75157;BME280;63736;50.076;8.198;2023-07-20T05:56:22;99371.63;;;28.92;36.50
75157;BME280;63736;50.076;8.198;2023-07-20T05:58:48;99377.34;;;28.17;37.25
75157;BME280;63736;50.076;8.198;2023-07-20T06:01:13;99387.34;;;27.25;38.13
75157;BME280;63736;50.076;8.198;2023-07-20T06:03:38;99385.72;;;26.41;39.34
75157;BME280;63736;50.076;8.198;2023-07-20T06:06:04;99387.84;;;25.54;40.91
75157;BME280;63736;50.076;8.198;2023-07-20T06:08:30;99382.88;;;24.89;42.49
75157;BME280;63736;50.076;8.198;2023-07-20T06:10:56;99391.16;;;24.32;44.05
75157;BME280;63736;50.076;8.198;2023-07-20T06:13:22;99387.91;;;23.84;45.02
75157;BME280;63736;50.076;8.198;2023-07-20T06:15:48;99389.13;;;23.50;46.41
75157;BME280;63736;50.076;8.198;2023-07-20T06:18:14;99389.63;;;23.33;47.12
75157;BME280;63736;50.076;8.198;2023-07-20T06:20:39;99394.44;;;23.31;47.58
75157;BME280;63736;50.076;8.198;2023-07-20T06:23:05;99391.47;;;23.39;47.88
75157;BME280;63736;50.076;8.198;2023-07-20T06:25:30;99388.16;;;24.40;46.79
75157;BME280;63736;50.076;8.198;2023-07-20T06:27:56;99387.47;;;25.93;43.98
75157;BME280;63736;50.076;8.198;2023-07-20T06:30:22;99389.78;;;26.98;41.52
75157;BME280;63736;50.076;8.198;2023-07-20T06:32:47;99386.00;;;27.80;40.03
75157;BME280;63736;50.076;8.198;2023-07-20T06:35:13;99386.41;;;28.18;38.57
75157;BME280;63736;50.076;8.198;2023-07-20T06:37:38;99388.34;;;28.17;38.13
75157;BME280;63736;50.076;8.198;2023-07-20T06:40:04;99389.72;;;27.45;38.45
75157;BME280;63736;50.076;8.198;2023-07-20T06:42:30;99392.56;;;26.86;39.33
75157;BME280;63736;50.076;8.198;2023-07-20T06:44:56;99394.66;;;26.36;40.62
75157;BME280;63736;50.076;8.198;2023-07-20T06:47:22;99395.34;;;25.89;41.64
75157;BME280;63736;50.076;8.198;2023-07-20T06:49:47;99394.53;;;25.40;42.46
75157;BME280;63736;50.076;8.198;2023-07-20T06:52:13;99398.28;;;25.02;43.39
75157;BME280;63736;50.076;8.198;2023-07-20T06:54:38;99395.06;;;24.68;44.27
75157;BME280;63736;50.076;8.198;2023-07-20T06:57:04;99396.28;;;24.47;44.73
75157;BME280;63736;50.076;8.198;2023-07-20T06:59:30;99399.16;;;24.27;45.30
75157;BME280;63736;50.076;8.198;2023-07-20T07:01:55;99399.41;;;24.25;45.39
75157;BME280;63736;50.076;8.198;2023-07-20T07:04:21;99402.25;;;25.06;43.97
75157;BME280;63736;50.076;8.198;2023-07-20T07:06:46;99401.56;;;25.29;43.30
75157;BME280;63736;50.076;8.198;2023-07-20T07:09:11;99397.56;;;25.13;43.32
75157;BME280;63736;50.076;8.198;2023-07-20T07:11:37;99412.41;;;24.80;43.37
75157;BME280;63736;50.076;8.198;2023-07-20T07:14:02;99408.03;;;24.47;44.08
75157;BME280;63736;50.076;8.198;2023-07-20T07:16:28;99404.50;;;24.15;44.87
75157;BME280;63736;50.076;8.198;2023-07-20T07:18:53;99412.66;;;23.83;45.95
75157;BME280;63736;50.076;8.198;2023-07-20T07:21:18;99395.28;;;23.38;46.94
75157;BME280;63736;50.076;8.198;2023-07-20T07:23:45;99396.38;;;23.10;48.26
75157;BME280;63736;50.076;8.198;2023-07-20T07:26:11;99405.63;;;23.03;48.95
75157;BME280;63736;50.076;8.198;2023-07-20T07:28:36;99397.78;;;23.40;49.05
75157;BME280;63736;50.076;8.198;2023-07-20T07:31:04;99397.88;;;25.42;44.55
75157;BME280;63736;50.076;8.198;2023-07-20T07:33:29;99390.00;;;27.61;40.09
75157;BME280;63736;50.076;8.198;2023-07-20T07:35:55;99398.56;;;28.90;37.26
75157;BME280;63736;50.076;8.198;2023-07-20T07:38:20;99396.53;;;30.19;35.17
75157;BME280;63736;50.076;8.198;2023-07-20T07:40:46;99398.59;;;30.71;33.76
75157;BME280;63736;50.076;8.198;2023-07-20T07:43:11;99397.44;;;30.29;33.68
75157;BME280;63736;50.076;8.198;2023-07-20T07:45:38;99398.34;;;29.58;34.44
75157;BME280;63736;50.076;8.198;2023-07-20T07:48:04;99396.63;;;29.52;34.68
75157;BME280;63736;50.076;8.198;2023-07-20T07:50:30;99393.97;;;28.96;35.53
75157;BME280;63736;50.076;8.198;2023-07-20T07:52:55;99394.56;;;28.13;36.29
75157;BME280;63736;50.076;8.198;2023-07-20T07:55:20;99393.75;;;27.55;37.17
75157;BME280;63736;50.076;8.198;2023-07-20T07:57:46;99396.75;;;27.82;36.92
75157;BME280;63736;50.076;8.198;2023-07-20T08:00:13;99396.66;;;27.77;37.11
75157;BME280;63736;50.076;8.198;2023-07-20T08:02:41;99397.94;;;27.33;37.26
75157;BME280;63736;50.076;8.198;2023-07-20T08:05:07;99403.97;;;26.83;38.30
75157;BME280;63736;50.076;8.198;2023-07-20T08:07:32;99404.63;;;26.43;39.12
75157;BME280;63736;50.076;8.198;2023-07-20T08:09:58;99404.53;;;26.37;39.29
75157;BME280;63736;50.076;8.198;2023-07-20T08:12:24;99405.94;;;26.28;39.38
75157;BME280;63736;50.076;8.198;2023-07-20T08:14:49;99407.94;;;26.09;39.65
75157;BME280;63736;50.076;8.198;2023-07-20T08:17:15;99403.56;;;25.89;40.42
75157;BME280;63736;50.076;8.198;2023-07-20T08:19:40;99404.88;;;26.29;39.51
75157;BME280;63736;50.076;8.198;2023-07-20T08:22:07;99400.53;;;26.87;38.69
75157;BME280;63736;50.076;8.198;2023-07-20T08:24:32;99399.88;;;28.02;36.80
75157;BME280;63736;50.076;8.198;2023-07-20T08:26:58;99403.56;;;28.42;35.95
75157;BME280;63736;50.076;8.198;2023-07-20T08:29:24;99401.09;;;28.41;35.94
75157;BME280;63736;50.076;8.198;2023-07-20T08:31:49;99410.06;;;28.19;35.79
75157;BME280;63736;50.076;8.198;2023-07-20T08:34:14;99409.06;;;27.67;36.70
75157;BME280;63736;50.076;8.198;2023-07-20T08:36:40;99410.72;;;27.28;37.48
75157;BME280;63736;50.076;8.198;2023-07-20T08:39:06;99412.44;;;26.81;37.70
75157;BME280;63736;50.076;8.198;2023-07-20T08:41:34;99414.91;;;26.47;38.55
75157;BME280;63736;50.076;8.198;2023-07-20T08:44:00;99417.13;;;26.27;38.81
75157;BME280;63736;50.076;8.198;2023-07-20T08:46:26;99411.50;;;26.10;39.28
75157;BME280;63736;50.076;8.198;2023-07-20T08:48:52;99415.03;;;25.80;39.79
75157;BME280;63736;50.076;8.198;2023-07-20T08:51:19;99409.25;;;25.58;40.30
75157;BME280;63736;50.076;8.198;2023-07-20T08:53:47;99410.41;;;26.65;38.96
75157;BME280;63736;50.076;8.198;2023-07-20T08:56:13;99415.56;;;27.37;37.51
75157;BME280;63736;50.076;8.198;2023-07-20T08:58:43;99410.22;;;28.12;36.93
75157;BME280;63736;50.076;8.198;2023-07-20T09:01:08;99410.34;;;28.68;36.02
75157;BME280;63736;50.076;8.198;2023-07-20T09:03:35;99401.44;;;28.44;35.84
75157;BME280;63736;50.076;8.198;2023-07-20T09:06:03;99403.97;;;28.17;36.32
75157;BME280;63736;50.076;8.198;2023-07-20T09:08:28;99410.31;;;27.89;36.36
75157;BME280;63736;50.076;8.198;2023-07-20T09:10:53;99401.53;;;27.75;36.83
75157;BME280;63736;50.076;8.198;2023-07-20T09:13:19;99399.16;;;28.41;35.34
75157;BME280;63736;50.076;8.198;2023-07-20T09:15:47;99406.56;;;28.07;35.88
75157;BME280;63736;50.076;8.198;2023-07-20T09:18:27;99401.19;;;27.71;36.05
75157;BME280;63736;50.076;8.198;2023-07-20T09:20:53;99399.34;;;28.68;34.71
75157;BME280;63736;50.076;8.198;2023-07-20T09:23:29;99403.66;;;29.65;33.70
75157;BME280;63736;50.076;8.198;2023-07-20T09:25:57;99399.03;;;29.04;34.00
75157;BME280;63736;50.076;8.198;2023-07-20T09:28:22;99396.66;;;28.40;34.88
75157;BME280;63736;50.076;8.198;2023-07-20T09:30:48;99400.16;;;28.35;35.48
75157;BME280;63736;50.076;8.198;2023-07-20T09:33:21;99399.28;;;30.19;33.24
75157;BME280;63736;50.076;8.198;2023-07-20T09:35:46;99396.09;;;31.81;30.44
75157;BME280;63736;50.076;8.198;2023-07-20T09:38:14;99390.88;;;32.00;29.84
75157;BME280;63736;50.076;8.198;2023-07-20T09:40:40;99396.19;;;32.33;29.27
75157;BME280;63736;50.076;8.198;2023-07-20T09:43:07;99396.47;;;32.57;28.84
75157;BME280;63736;50.076;8.198;2023-07-20T09:45:34;99394.25;;;32.43;28.30
75157;BME280;63736;50.076;8.198;2023-07-20T09:48:07;99394.22;;;32.80;28.08
75157;BME280;63736;50.076;8.198;2023-07-20T09:50:33;99394.88;;;33.97;26.92
75157;BME280;63736;50.076;8.198;2023-07-20T09:53:00;99389.38;;;34.26;26.53
75157;BME280;63736;50.076;8.198;2023-07-20T09:55:26;99383.34;;;33.14;27.20
75157;BME280;63736;50.076;8.198;2023-07-20T09:57:52;99382.03;;;32.08;28.58
75157;BME280;63736;50.076;8.198;2023-07-20T10:00:18;99395.06;;;31.24;29.54
75157;BME280;63736;50.076;8.198;2023-07-20T10:02:45;99391.97;;;30.02;30.61
75157;BME280;63736;50.076;8.198;2023-07-20T10:05:12;99387.97;;;28.99;32.44
75157;BME280;63736;50.076;8.198;2023-07-20T10:07:43;99387.53;;;28.34;33.25
75157;BME280;63736;50.076;8.198;2023-07-20T10:10:10;99398.53;;;27.76;33.50
75157;BME280;63736;50.076;8.198;2023-07-20T10:12:37;99379.75;;;27.27;34.23
75157;BME280;63736;50.076;8.198;2023-07-20T10:15:15;99391.00;;;26.90;34.95
75157;BME280;63736;50.076;8.198;2023-07-20T10:18:12;99383.94;;;26.59;35.58
75157;BME280;63736;50.076;8.198;2023-07-20T10:20:40;99381.66;;;26.44;36.09
75157;BME280;63736;50.076;8.198;2023-07-20T10:23:09;99372.13;;;26.46;36.64
75157;BME280;63736;50.076;8.198;2023-07-20T10:25:35;99374.53;;;26.54;36.85
75157;BME280;63736;50.076;8.198;2023-07-20T10:28:05;99370.38;;;26.87;36.90
75157;BME280;63736;50.076;8.198;2023-07-20T10:30:37;99366.59;;;27.29;36.29
75157;BME280;63736;50.076;8.198;2023-07-20T10:33:04;99367.69;;;27.69;35.67
75157;BME280;63736;50.076;8.198;2023-07-20T10:35:30;99362.03;;;28.22;35.44
75157;BME280;63736;50.076;8.198;2023-07-20T10:38:04;99364.84;;;28.61;34.49
75157;BME280;63736;50.076;8.198;2023-07-20T10:40:34;99361.38;;;28.65;34.37
75157;BME280;63736;50.076;8.198;2023-07-20T10:43:02;99350.28;;;28.60;33.75
75157;BME280;63736;50.076;8.198;2023-07-20T10:45:41;99349.63;;;28.36;34.32
75157;BME280;63736;50.076;8.198;2023-07-20T10:48:27;99351.38;;;28.25;34.84
75157;BME280;63736;50.076;8.198;2023-07-20T10:51:13;99354.69;;;28.27;34.73
75157;BME280;63736;50.076;8.198;2023-07-20T10:53:40;99343.50;;;28.12;34.54
75157;BME280;63736;50.076;8.198;2023-07-20T10:56:08;99349.72;;;28.07;34.95
75157;BME280;63736;50.076;8.198;2023-07-20T10:58:34;99350.22;;;28.04;35.17
75157;BME280;63736;50.076;8.198;2023-07-20T11:01:03;99332.34;;;28.18;34.74
75157;BME280;63736;50.076;8.198;2023-07-20T11:03:34;99342.97;;;28.32;34.93
75157;BME280;63736;50.076;8.198;2023-07-20T11:09:04;99331.31;;;28.59;33.78
75157;BME280;63736;50.076;8.198;2023-07-20T11:11:33;99340.81;;;28.68;34.04
75157;BME280;63736;50.076;8.198;2023-07-20T11:14:01;99334.03;;;28.76;33.81
75157;BME280;63736;50.076;8.198;2023-07-20T11:16:34;99338.50;;;28.65;33.29
75157;BME280;63736;50.076;8.198;2023-07-20T11:19:00;99340.75;;;28.29;33.80
75157;BME280;63736;50.076;8.198;2023-07-20T11:21:25;99337.34;;;27.76;34.17
75157;BME280;63736;50.076;8.198;2023-07-20T11:23:52;99346.50;;;27.00;34.38
75157;BME280;63736;50.076;8.198;2023-07-20T11:26:18;99341.06;;;26.41;34.89
75157;BME280;63736;50.076;8.198;2023-07-20T11:28:51;99333.25;;;26.02;35.09
75157;BME280;63736;50.076;8.198;2023-07-20T11:31:18;99334.13;;;25.72;35.73
75157;BME280;63736;50.076;8.198;2023-07-20T11:33:43;99336.00;;;25.60;36.01
75157;BME280;63736;50.076;8.198;2023-07-20T11:36:09;99334.06;;;25.48;35.86
75157;BME280;63736;50.076;8.198;2023-07-20T11:38:34;99324.94;;;25.36;36.00
75157;BME280;63736;50.076;8.198;2023-07-20T11:41:02;99327.81;;;25.41;36.33
75157;BME280;63736;50.076;8.198;2023-07-20T11:43:29;99325.50;;;25.56;36.51
75157;BME280;63736;50.076;8.198;2023-07-20T11:45:54;99329.28;;;25.74;36.20
75157;BME280;63736;50.076;8.198;2023-07-20T11:48:20;99328.81;;;25.89;35.88
75157;BME280;63736;50.076;8.198;2023-07-20T11:50:45;99321.25;;;26.03;35.48
75157;BME280;63736;50.076;8.198;2023-07-20T11:53:10;99317.72;;;26.14;35.88
75157;BME280;63736;50.076;8.198;2023-07-20T11:55:38;99323.56;;;26.30;35.61
75157;BME280;63736;50.076;8.198;2023-07-20T11:58:07;99307.94;;;26.54;35.25
75157;BME280;63736;50.076;8.198;2023-07-20T12:00:34;99298.66;;;26.79;35.15
75157;BME280;63736;50.076;8.198;2023-07-20T12:03:00;99304.47;;;26.94;34.40
75157;BME280;63736;50.076;8.198;2023-07-20T12:05:25;99303.38;;;27.07;34.08
75157;BME280;63736;50.076;8.198;2023-07-20T12:07:51;99297.31;;;27.34;33.91
75157;BME280;63736;50.076;8.198;2023-07-20T12:10:26;99298.84;;;27.70;33.73
75157;BME280;63736;50.076;8.198;2023-07-20T12:12:53;99291.59;;;27.98;33.11
75157;BME280;63736;50.076;8.198;2023-07-20T12:15:26;99285.50;;;28.08;32.42
75157;BME280;63736;50.076;8.198;2023-07-20T12:17:54;99286.66;;;28.12;32.49
75157;BME280;63736;50.076;8.198;2023-07-20T12:20:34;99283.72;;;28.19;32.32
75157;BME280;63736;50.076;8.198;2023-07-20T12:23:08;99282.72;;;28.25;31.67
75157;BME280;63736;50.076;8.198;2023-07-20T12:25:44;99278.53;;;28.40;31.19
75157;BME280;63736;50.076;8.198;2023-07-20T12:28:11;99276.28;;;28.54;31.26
75157;BME280;63736;50.076;8.198;2023-07-20T12:30:38;99284.66;;;28.64;30.73
75157;BME280;63736;50.076;8.198;2023-07-20T12:33:03;99283.34;;;28.66;30.51
75157;BME280;63736;50.076;8.198;2023-07-20T12:35:30;99278.75;;;28.72;31.07
75157;BME280;63736;50.076;8.198;2023-07-20T12:37:56;99275.94;;;28.89;30.59
75157;BME280;63736;50.076;8.198;2023-07-20T12:40:21;99264.03;;;29.06;30.48
75157;BME280;63736;50.076;8.198;2023-07-20T12:42:47;99264.72;;;29.18;30.41
75157;BME280;63736;50.076;8.198;2023-07-20T12:45:13;99263.75;;;29.29;29.91
75157;BME280;63736;50.076;8.198;2023-07-20T12:47:39;99261.84;;;29.08;30.12
75157;BME280;63736;50.076;8.198;2023-07-20T12:50:04;99260.69;;;28.59;30.12
75157;BME280;63736;50.076;8.198;2023-07-20T12:52:31;99263.34;;;28.15;30.50
75157;BME280;63736;50.076;8.198;2023-07-20T12:54:56;99262.00;;;27.66;31.01
75157;BME280;63736;50.076;8.198;2023-07-20T12:57:22;99263.72;;;27.27;31.58
75157;BME280;63736;50.076;8.198;2023-07-20T12:59:47;99258.72;;;26.95;31.66
75157;BME280;63736;50.076;8.198;2023-07-20T13:02:13;99256.34;;;26.86;32.43
75157;BME280;63736;50.076;8.198;2023-07-20T13:04:38;99253.72;;;26.92;32.28